Time;durP1;ratioP1;P1;durP2;ratioP2;P2;SDS_P1;SDS_P2;PMS_P1;PMS_P2;Temp;Humidity;BMP_temperature;BMP_pressure;BME280_temperature;BME280_humidity;BME280_pressure;Samples;Min_cycle;Max_cycle;Signal;HPM_P1;HPM_P2
2023/06/21 00:00:37;;;;;;;9.85;8.20;;;;;;;;;;4396339;32;317261;-94
2023/06/21 00:03:05;;;;;;;14.87;8.27;;;;;;;;;;4407898;32;315882;-95
2023/06/21 00:05:34;;;;;;;10.50;8.75;;;;;;;;;;4389584;32;317400;-94
2023/06/21 00:08:01;;;;;;;9.20;8.35;;;;;;;;;;4413595;32;317130;-95
2023/06/21 00:10:29;;;;;;;8.83;7.93;;;;;;;;;;4381277;32;328508;-94
2023/06/21 00:12:57;;;;;;;11.10;7.97;;;;;;;;;;4415529;32;316727;-94
2023/06/21 00:15:27;;;;;;;11.73;9.27;;;;;;;;;;4380202;32;317510;-95
2023/06/21 00:17:54;;;;;;;9.57;8.38;;;;;;;;;;4397878;32;356031;-94
2023/06/21 00:20:24;;;;;;;17.35;8.77;;;;;;;;;;4387369;32;316277;-94
2023/06/21 00:22:55;;;;;;;9.25;8.10;;;;;;;;;;4397671;32;317614;-94
2023/06/21 00:25:24;;;;;;;13.33;8.50;;;;;;;;;;4402419;32;318686;-94
2023/06/21 00:27:52;;;;;;;10.32;8.73;;;;;;;;;;4404600;32;317470;-94
2023/06/21 00:30:20;;;;;;;12.25;9.35;;;;;;;;;;4395586;32;317441;-94
2023/06/21 00:32:55;;;;;;;14.77;9.10;;;;;;;;;;4403811;32;320713;-94
2023/06/21 00:35:25;;;;;;;13.85;7.87;;;;;;;;;;4395879;32;317313;-95
2023/06/21 00:37:55;;;;;;;11.75;9.35;;;;;;;;;;4403342;32;317342;-94
2023/06/21 00:40:25;;;;;;;13.62;8.82;;;;;;;;;;4392165;32;317394;-94
2023/06/21 00:42:52;;;;;;;11.30;9.52;;;;;;;;;;4404329;32;317635;-94
2023/06/21 00:45:20;;;;;;;9.82;8.75;;;;;;;;;;4395451;32;317473;-95
2023/06/21 00:47:49;;;;;;;13.77;8.82;;;;;;;;;;4404038;32;316428;-93
2023/06/21 00:50:17;;;;;;;12.13;9.15;;;;;;;;;;4395145;32;317684;-94
2023/06/21 00:52:52;;;;;;;16.30;9.00;;;;;;;;;;4407115;32;316343;-94
2023/06/21 00:55:21;;;;;;;12.60;9.05;;;;;;;;;;4399568;32;317860;-95
2023/06/21 00:57:49;;;;;;;9.15;8.18;;;;;;;;;;4410381;32;317784;-94
2023/06/21 01:00:20;;;;;;;11.57;9.00;;;;;;;;;;4392806;32;316421;-94
2023/06/21 01:02:51;;;;;;;11.40;8.88;;;;;;;;;;4414868;32;317333;-95
2023/06/21 01:05:18;;;;;;;10.30;8.75;;;;;;;;;;4407122;32;317404;-95
2023/06/21 01:07:55;;;;;;;10.95;9.80;;;;;;;;;;4415838;32;317449;-94
2023/06/21 01:10:38;;;;;;;10.60;9.50;;;;;;;;;;4403686;32;317660;-94
2023/06/21 01:13:19;;;;;;;11.38;9.48;;;;;;;;;;4413025;32;317361;-94
2023/06/21 01:15:49;;;;;;;9.15;8.10;;;;;;;;;;4402385;32;390293;-94
2023/06/21 01:18:22;;;;;;;11.52;8.95;;;;;;;;;;4404093;32;338251;-93
2023/06/21 01:20:54;;;;;;;10.88;9.15;;;;;;;;;;4402664;32;317223;-95
2023/06/21 01:23:41;;;;;;;10.30;9.13;;;;;;;;;;4393068;32;317488;-95
2023/06/21 01:26:13;;;;;;;19.90;8.82;;;;;;;;;;4408490;32;317453;-92
2023/06/21 01:29:10;;;;;;;11.90;9.25;;;;;;;;;;4394414;32;418373;-93
2023/06/21 01:31:42;;;;;;;11.82;9.15;;;;;;;;;;4389601;32;317699;-94
2023/06/21 01:34:10;;;;;;;12.68;9.38;;;;;;;;;;4407829;32;317322;-94
2023/06/21 01:36:41;;;;;;;9.48;8.48;;;;;;;;;;4403430;32;317587;-94
2023/06/21 01:39:09;;;;;;;11.80;8.85;;;;;;;;;;4406363;32;316698;-93
2023/06/21 01:41:37;;;;;;;11.27;8.98;;;;;;;;;;4406426;32;317224;-94
2023/06/21 01:44:07;;;;;;;14.80;9.85;;;;;;;;;;4407474;32;317509;-94
2023/06/21 01:46:36;;;;;;;11.25;8.63;;;;;;;;;;4397631;32;317477;-93
2023/06/21 01:49:06;;;;;;;16.65;9.88;;;;;;;;;;4411070;32;317447;-95
2023/06/21 01:51:35;;;;;;;10.73;8.60;;;;;;;;;;4402344;32;316150;-94
2023/06/21 01:54:03;;;;;;;14.63;9.52;;;;;;;;;;4411005;32;317356;-94
2023/06/21 01:56:31;;;;;;;11.32;8.55;;;;;;;;;;4393111;32;318017;-94
2023/06/21 01:58:59;;;;;;;12.57;9.70;;;;;;;;;;4408187;32;316928;-94
2023/06/21 02:01:28;;;;;;;16.42;9.35;;;;;;;;;;4398367;32;317385;-94
2023/06/21 02:04:02;;;;;;;14.82;10.18;;;;;;;;;;4403515;32;317349;-94
2023/06/21 02:06:31;;;;;;;19.92;10.32;;;;;;;;;;4401283;32;318836;-93
2023/06/21 02:08:59;;;;;;;10.15;9.02;;;;;;;;;;4422715;32;318050;-93
2023/06/21 02:11:28;;;;;;;11.77;10.10;;;;;;;;;;4398233;32;317302;-94
2023/06/21 02:13:56;;;;;;;10.35;9.18;;;;;;;;;;4408558;32;318532;-94
2023/06/21 02:16:26;;;;;;;14.77;9.57;;;;;;;;;;4411694;32;321305;-95
2023/06/21 02:18:53;;;;;;;18.85;9.95;;;;;;;;;;4423080;32;317539;-93
2023/06/21 02:21:24;;;;;;;11.80;9.98;;;;;;;;;;4412865;32;317657;-95
2023/06/21 02:23:51;;;;;;;10.07;8.70;;;;;;;;;;4408298;32;317507;-93
2023/06/21 02:26:20;;;;;;;15.32;8.93;;;;;;;;;;4396950;32;317551;-94
2023/06/21 02:28:50;;;;;;;10.95;8.90;;;;;;;;;;4407354;32;316415;-94
2023/06/21 02:31:17;;;;;;;16.73;9.82;;;;;;;;;;4399366;32;317232;-95
2023/06/21 02:33:48;;;;;;;13.20;9.55;;;;;;;;;;4407200;32;317469;-94
2023/06/21 02:36:19;;;;;;;11.25;9.90;;;;;;;;;;4404951;32;318112;-94
2023/06/21 02:38:51;;;;;;;10.52;9.13;;;;;;;;;;4422007;32;317554;-94
2023/06/21 02:41:19;;;;;;;11.30;8.75;;;;;;;;;;4410135;32;333634;-94
2023/06/21 02:43:50;;;;;;;18.17;9.30;;;;;;;;;;4408084;32;317531;-94
2023/06/21 02:46:18;;;;;;;9.63;8.50;;;;;;;;;;4412134;32;324003;-94
2023/06/21 02:48:45;;;;;;;14.85;10.07;;;;;;;;;;4417922;32;352301;-94
2023/06/21 02:51:12;;;;;;;9.23;8.27;;;;;;;;;;4401050;32;318454;-95
2023/06/21 02:53:39;;;;;;;10.07;8.98;;;;;;;;;;4408016;32;419744;-94
2023/06/21 02:56:08;;;;;;;10.18;9.00;;;;;;;;;;4420579;32;317523;-93
2023/06/21 02:58:35;;;;;;;16.42;9.48;;;;;;;;;;4407861;32;317435;-94
2023/06/21 03:01:02;;;;;;;11.35;8.98;;;;;;;;;;4420685;32;317512;-94
2023/06/21 03:03:44;;;;;;;10.77;9.65;;;;;;;;;;4409130;32;317349;-95
2023/06/21 03:06:17;;;;;;;15.10;9.65;;;;;;;;;;4408312;32;317906;-94
2023/06/21 03:08:49;;;;;;;10.93;9.40;;;;;;;;;;4406231;32;418846;-94
2023/06/21 03:11:20;;;;;;;10.00;8.63;;;;;;;;;;4397411;32;317728;-94
2023/06/21 03:13:49;;;;;;;14.68;9.73;;;;;;;;;;4392159;32;341745;-94
2023/06/21 03:16:17;;;;;;;14.80;9.40;;;;;;;;;;4393525;32;317390;-94
2023/06/21 03:18:46;;;;;;;17.48;10.70;;;;;;;;;;4395638;32;417118;-94
2023/06/21 03:21:15;;;;;;;14.10;8.63;;;;;;;;;;4421130;32;322768;-94
2023/06/21 03:23:43;;;;;;;10.90;9.60;;;;;;;;;;4385412;32;417331;-94
2023/06/21 03:26:12;;;;;;;13.13;9.85;;;;;;;;;;4420874;32;317449;-94
2023/06/21 03:28:42;;;;;;;13.32;10.35;;;;;;;;;;4383519;32;389083;-94
2023/06/21 03:31:10;;;;;;;13.10;10.35;;;;;;;;;;4413790;32;318624;-94
2023/06/21 03:33:38;;;;;;;16.80;10.80;;;;;;;;;;4402800;32;318788;-93
2023/06/21 03:36:05;;;;;;;15.45;10.13;;;;;;;;;;4406566;32;318824;-94
2023/06/21 03:38:32;;;;;;;17.02;10.45;;;;;;;;;;4408941;32;318599;-95
2023/06/21 03:40:59;;;;;;;12.13;10.18;;;;;;;;;;4406750;32;318546;-94
2023/06/21 03:43:26;;;;;;;12.05;9.82;;;;;;;;;;4389693;32;318626;-93
2023/06/21 03:45:55;;;;;;;12.52;9.25;;;;;;;;;;4382862;32;317498;-93
2023/06/21 03:48:23;;;;;;;20.70;9.80;;;;;;;;;;4387201;32;317473;-95
2023/06/21 03:50:52;;;;;;;15.50;10.82;;;;;;;;;;4393868;32;317524;-94
2023/06/21 03:53:20;;;;;;;15.68;10.35;;;;;;;;;;4378036;32;318543;-94
2023/06/21 03:55:47;;;;;;;10.80;9.60;;;;;;;;;;4416769;32;317278;-95
2023/06/21 03:58:15;;;;;;;10.80;9.55;;;;;;;;;;4418612;32;317225;-93
2023/06/21 04:00:43;;;;;;;12.73;10.35;;;;;;;;;;4412718;32;317403;-91
2023/06/21 04:03:12;;;;;;;15.35;9.93;;;;;;;;;;4406531;32;318578;-95
2023/06/21 04:05:39;;;;;;;10.35;9.20;;;;;;;;;;4400811;32;364524;-96
2023/06/21 04:08:09;;;;;;;11.90;9.75;;;;;;;;;;4419912;32;317335;-93
2023/06/21 04:10:37;;;;;;;12.32;10.48;;;;;;;;;;4410994;32;317538;-95
2023/06/21 04:13:04;;;;;;;13.18;10.77;;;;;;;;;;4397493;32;318698;-96
2023/06/21 04:15:31;;;;;;;19.10;10.35;;;;;;;;;;4397541;32;318357;-95
2023/06/21 04:18:01;;;;;;;13.13;10.30;;;;;;;;;;4387496;32;318444;-95
2023/06/21 04:20:31;;;;;;;12.55;9.77;;;;;;;;;;4411324;32;318842;-94
2023/06/21 04:22:58;;;;;;;16.12;9.85;;;;;;;;;;4419735;32;317627;-94
2023/06/21 04:25:26;;;;;;;15.32;10.18;;;;;;;;;;4400227;32;317560;-94
2023/06/21 04:27:54;;;;;;;10.02;8.93;;;;;;;;;;4421062;32;338897;-94
2023/06/21 04:30:22;;;;;;;11.00;9.45;;;;;;;;;;4410524;32;317592;-94
2023/06/21 04:32:49;;;;;;;10.20;9.18;;;;;;;;;;4387431;32;317484;-94
2023/06/21 04:35:17;;;;;;;12.73;10.95;;;;;;;;;;4410913;32;317602;-93
2023/06/21 04:37:50;;;;;;;13.07;10.40;;;;;;;;;;4404796;32;318508;-94
2023/06/21 04:40:19;;;;;;;15.13;11.48;;;;;;;;;;4406241;32;318814;-94
2023/06/21 04:42:55;;;;;;;14.93;10.32;;;;;;;;;;4409894;32;318578;-94
2023/06/21 04:45:26;;;;;;;12.27;9.30;;;;;;;;;;4402353;32;318890;-94
2023/06/21 04:47:57;;;;;;;14.73;9.15;;;;;;;;;;4412464;32;317492;-94
2023/06/21 04:50:24;;;;;;;16.12;9.07;;;;;;;;;;4395656;32;317562;-93
2023/06/21 04:52:59;;;;;;;17.30;10.27;;;;;;;;;;4412066;32;317765;-93
2023/06/21 04:55:27;;;;;;;17.13;9.47;;;;;;;;;;4408601;32;337631;-94
2023/06/21 04:57:54;;;;;;;22.73;10.73;;;;;;;;;;4404566;32;317027;-94
2023/06/21 05:00:21;;;;;;;18.60;9.77;;;;;;;;;;4391775;32;343892;-95
2023/06/21 05:02:54;;;;;;;15.75;10.07;;;;;;;;;;4420443;32;317528;-94
2023/06/21 05:05:21;;;;;;;9.80;8.77;;;;;;;;;;4405683;32;318409;-94
2023/06/21 05:07:51;;;;;;;16.12;10.68;;;;;;;;;;4423737;32;316256;-94
2023/06/21 05:10:24;;;;;;;12.75;9.50;;;;;;;;;;4380785;32;399057;-94
2023/06/21 05:12:53;;;;;;;13.88;9.32;;;;;;;;;;4421601;32;318090;-93
2023/06/21 05:15:24;;;;;;;15.33;10.00;;;;;;;;;;4390931;32;317331;-94
2023/06/21 05:17:52;;;;;;;16.60;9.90;;;;;;;;;;4420926;32;329832;-93
2023/06/21 05:20:28;;;;;;;13.05;10.35;;;;;;;;;;4403530;32;317467;-94
2023/06/21 05:23:00;;;;;;;14.77;9.68;;;;;;;;;;4411971;32;318600;-95
2023/06/21 05:25:30;;;;;;;20.95;9.98;;;;;;;;;;4385417;32;317247;-95
2023/06/21 05:30:45;;;;;;;15.77;11.55;;;;;;;;;;4417260;32;317354;-94
2023/06/21 05:35:58;;;;;;;14.32;10.95;;;;;;;;;;4405407;32;389983;-94
2023/06/21 05:38:27;;;;;;;12.07;10.03;;;;;;;;;;4400782;32;318580;-91
2023/06/21 05:41:13;;;;;;;11.15;10.05;;;;;;;;;;4419386;32;318633;-93
2023/06/21 05:43:45;;;;;;;11.35;10.20;;;;;;;;;;4410315;32;390091;-94
2023/06/21 05:46:14;;;;;;;14.05;10.27;;;;;;;;;;4415183;32;317311;-94
2023/06/21 05:48:42;;;;;;;16.95;10.07;;;;;;;;;;4403598;32;418497;-94
2023/06/21 05:51:10;;;;;;;14.43;10.43;;;;;;;;;;4406037;32;319024;-93
2023/06/21 05:53:37;;;;;;;12.65;9.85;;;;;;;;;;4410885;32;318779;-95
2023/06/21 05:56:08;;;;;;;12.32;9.80;;;;;;;;;;4409124;32;317347;-93
2023/06/21 05:58:37;;;;;;;12.60;9.90;;;;;;;;;;4397503;32;317607;-92
2023/06/21 06:01:07;;;;;;;11.75;10.00;;;;;;;;;;4415254;32;317386;-93
2023/06/21 06:03:36;;;;;;;18.05;10.02;;;;;;;;;;4403336;32;318535;-93
2023/06/21 06:06:04;;;;;;;11.93;10.50;;;;;;;;;;4414086;32;318533;-94
2023/06/21 06:08:31;;;;;;;20.60;11.32;;;;;;;;;;4411686;32;320969;-93
2023/06/21 06:13:50;;;;;;;11.10;9.52;;;;;;;;;;4400557;32;318711;-95
2023/06/21 06:19:08;;;;;;;11.43;9.57;;;;;;;;;;4408382;32;317524;-93
2023/06/21 06:21:40;;;;;;;13.40;10.35;;;;;;;;;;4411816;32;317462;-93
2023/06/21 06:24:11;;;;;;;14.93;10.73;;;;;;;;;;4415439;32;318459;-92
2023/06/21 06:26:44;;;;;;;14.27;10.30;;;;;;;;;;4414852;32;318450;-95
2023/06/21 06:29:17;;;;;;;14.63;10.50;;;;;;;;;;4413742;32;318666;-95
2023/06/21 06:31:46;;;;;;;20.48;12.25;;;;;;;;;;4369520;32;389125;-95
2023/06/21 06:34:19;;;;;;;16.58;10.52;;;;;;;;;;4411983;32;318935;-96
2023/06/21 06:36:49;;;;;;;16.30;10.98;;;;;;;;;;4384279;32;420740;-93
2023/06/21 06:39:19;;;;;;;14.75;10.93;;;;;;;;;;4417084;32;318304;-93
2023/06/21 06:41:50;;;;;;;12.27;10.13;;;;;;;;;;4388262;32;390174;-94
2023/06/21 06:44:19;;;;;;;17.80;11.43;;;;;;;;;;4410541;32;318433;-95
2023/06/21 06:47:00;;;;;;;16.98;11.20;;;;;;;;;;4392261;32;318554;-94
2023/06/21 06:49:31;;;;;;;17.12;11.57;;;;;;;;;;4398050;32;318634;-94
2023/06/21 06:52:07;;;;;;;15.13;10.52;;;;;;;;;;4412159;32;318703;-93
2023/06/21 06:54:41;;;;;;;16.97;10.23;;;;;;;;;;4400549;32;317579;-94
2023/06/21 06:57:10;;;;;;;29.58;12.82;;;;;;;;;;4415922;32;318480;-93
2023/06/21 06:59:51;;;;;;;19.45;10.85;;;;;;;;;;4407191;32;318663;-93
2023/06/21 07:02:19;;;;;;;14.50;11.48;;;;;;;;;;4406652;32;318396;-93
2023/06/21 07:04:53;;;;;;;14.30;9.65;;;;;;;;;;4406458;32;318669;-95
2023/06/21 07:07:24;;;;;;;12.18;10.75;;;;;;;;;;4429480;32;317547;-93
2023/06/21 07:09:51;;;;;;;11.23;10.05;;;;;;;;;;4433567;32;318486;-94
2023/06/21 07:12:19;;;;;;;11.60;10.13;;;;;;;;;;4428024;32;318630;-94
2023/06/21 07:14:48;;;;;;;12.37;10.07;;;;;;;;;;4429657;32;317384;-94
2023/06/21 07:17:16;;;;;;;15.70;10.25;;;;;;;;;;4406920;32;318636;-94
2023/06/21 07:19:45;;;;;;;13.65;10.35;;;;;;;;;;4423405;32;318769;-94
2023/06/21 07:22:19;;;;;;;20.88;10.75;;;;;;;;;;4436336;32;318400;-93
2023/06/21 07:24:50;;;;;;;14.45;9.93;;;;;;;;;;4411801;32;418513;-93
2023/06/21 07:27:21;;;;;;;14.93;11.02;;;;;;;;;;4424431;32;317815;-93
2023/06/21 07:29:52;;;;;;;16.67;10.40;;;;;;;;;;4416236;32;324285;-93
2023/06/21 07:32:20;;;;;;;13.88;10.70;;;;;;;;;;4403449;32;399077;-93
2023/06/21 07:37:29;;;;;;;13.62;9.68;;;;;;;;;;4425254;32;317535;-94
2023/06/21 07:39:58;;;;;;;14.68;10.60;;;;;;;;;;4421178;32;317415;-95
2023/06/21 07:42:26;;;;;;;11.30;10.02;;;;;;;;;;4413810;32;318429;-92
2023/06/21 07:44:58;;;;;;;13.40;11.10;;;;;;;;;;4426444;32;318686;-95
2023/06/21 07:47:27;;;;;;;15.32;11.65;;;;;;;;;;4376444;32;318700;-95
2023/06/21 07:49:54;;;;;;;12.45;10.98;;;;;;;;;;4435189;32;353154;-94
2023/06/21 07:52:24;;;;;;;20.77;10.93;;;;;;;;;;4409811;32;318807;-95
2023/06/21 07:54:51;;;;;;;13.73;10.85;;;;;;;;;;4436122;32;318691;-91
2023/06/21 07:57:19;;;;;;;13.77;11.27;;;;;;;;;;4412356;32;318727;-94
2023/06/21 07:59:47;;;;;;;14.63;11.32;;;;;;;;;;4423338;32;318312;-94
2023/06/21 08:02:18;;;;;;;13.85;10.52;;;;;;;;;;4435270;32;318742;-94
2023/06/21 08:04:48;;;;;;;11.15;9.95;;;;;;;;;;4398014;32;390802;-94
2023/06/21 08:07:26;;;;;;;16.83;10.68;;;;;;;;;;4417573;32;365830;-92
2023/06/21 08:09:54;;;;;;;16.73;10.85;;;;;;;;;;4408956;32;318562;-94
2023/06/21 08:12:21;;;;;;;16.55;10.32;;;;;;;;;;4427016;32;318384;-93
2023/06/21 08:14:49;;;;;;;11.73;9.82;;;;;;;;;;4418051;32;318641;-94
2023/06/21 08:17:18;;;;;;;13.95;11.00;;;;;;;;;;4415043;32;333675;-93
2023/06/21 08:19:47;;;;;;;13.65;11.25;;;;;;;;;;4430511;32;318656;-93
2023/06/21 08:22:17;;;;;;;17.70;9.95;;;;;;;;;;4426426;32;318772;-94
2023/06/21 08:24:46;;;;;;;11.98;10.02;;;;;;;;;;4437497;32;317598;-94
2023/06/21 08:27:17;;;;;;;14.50;9.63;;;;;;;;;;4440044;32;317418;-95
2023/06/21 08:29:47;;;;;;;14.32;9.13;;;;;;;;;;4418647;32;420263;-95
2023/06/21 08:32:14;;;;;;;12.40;9.95;;;;;;;;;;4438506;32;318102;-93
2023/06/21 08:34:44;;;;;;;12.82;10.02;;;;;;;;;;4404284;32;418376;-93
2023/06/21 08:37:11;;;;;;;13.55;10.40;;;;;;;;;;4437680;32;318265;-95
2023/06/21 08:39:45;;;;;;;12.60;9.90;;;;;;;;;;4420758;32;318631;-95
2023/06/21 08:42:14;;;;;;;14.70;9.27;;;;;;;;;;4430720;32;317333;-94
2023/06/21 08:44:42;;;;;;;12.37;11.07;;;;;;;;;;4402843;32;419900;-93
2023/06/21 08:47:12;;;;;;;13.55;11.55;;;;;;;;;;4422616;32;318540;-94
2023/06/21 08:49:41;;;;;;;15.02;10.82;;;;;;;;;;4427018;32;318486;-94
2023/06/21 08:52:13;;;;;;;12.45;10.65;;;;;;;;;;4429604;32;318339;-95
2023/06/21 08:54:47;;;;;;;19.80;11.02;;;;;;;;;;4409562;32;318605;-94
2023/06/21 08:57:19;;;;;;;15.80;10.20;;;;;;;;;;4410406;32;317259;-94
2023/06/21 08:59:54;;;;;;;15.25;10.40;;;;;;;;;;4402474;32;390277;-94
2023/06/21 09:02:34;;;;;;;26.00;10.63;;;;;;;;;;4425104;32;348928;-95
2023/06/21 09:05:05;;;;;;;14.93;10.05;;;;;;;;;;4415222;32;318457;-93
2023/06/21 09:07:36;;;;;;;17.20;9.75;;;;;;;;;;4426533;32;318475;-93
2023/06/21 09:10:04;;;;;;;14.93;10.70;;;;;;;;;;4426545;32;317291;-92
2023/06/21 09:12:34;;;;;;;13.02;10.10;;;;;;;;;;4429600;32;357619;-93
2023/06/21 09:15:09;;;;;;;14.05;9.45;;;;;;;;;;4442950;32;318167;-94
2023/06/21 09:17:37;;;;;;;16.33;10.45;;;;;;;;;;4417472;32;317338;-93
2023/06/21 09:20:05;;;;;;;14.52;9.70;;;;;;;;;;4439194;32;318612;-94
2023/06/21 09:22:38;;;;;;;13.30;11.17;;;;;;;;;;4407856;32;317542;-95
2023/06/21 09:25:08;;;;;;;12.60;8.93;;;;;;;;;;4426198;32;318444;-94
2023/06/21 09:27:41;;;;;;;11.20;8.85;;;;;;;;;;4427757;32;317354;-94
2023/06/21 09:30:09;;;;;;;12.70;10.82;;;;;;;;;;4439495;32;317601;-93
2023/06/21 09:32:42;;;;;;;11.98;10.00;;;;;;;;;;4420417;32;325440;-95
2023/06/21 09:35:15;;;;;;;16.62;10.40;;;;;;;;;;4438245;32;317318;-95
2023/06/21 09:38:21;;;;;;;11.38;9.27;;;;;;;;;;4428071;32;421427;-95
2023/06/21 09:40:49;;;;;;;10.40;8.70;;;;;;;;;;4420780;32;416260;-93
2023/06/21 09:43:22;;;;;;;12.23;8.65;;;;;;;;;;4417793;32;324700;-94
2023/06/21 09:46:03;;;;;;;8.27;7.47;;;;;;;;;;4432780;32;317280;-95
2023/06/21 09:48:35;;;;;;;9.63;7.95;;;;;;;;;;4423628;32;316537;-95
2023/06/21 09:51:04;;;;;;;10.60;7.57;;;;;;;;;;4442230;32;314863;-91
2023/06/21 09:53:46;;;;;;;9.68;6.53;;;;;;;;;;4432417;32;317304;-94
2023/06/21 09:56:17;;;;;;;8.68;6.68;;;;;;;;;;4425199;32;316269;-94
2023/06/21 09:58:47;;;;;;;12.52;6.93;;;;;;;;;;4418076;32;414165;-94
2023/06/21 10:01:15;;;;;;;7.75;6.70;;;;;;;;;;4419515;32;317332;-94
2023/06/21 10:03:45;;;;;;;8.98;6.57;;;;;;;;;;4425773;32;416241;-94
2023/06/21 10:06:16;;;;;;;8.57;6.43;;;;;;;;;;4425596;32;316714;-94
2023/06/21 10:08:49;;;;;;;7.85;7.05;;;;;;;;;;4412533;32;388716;-94
2023/06/21 10:11:17;;;;;;;7.25;6.45;;;;;;;;;;4430589;32;316422;-94
2023/06/21 10:13:44;;;;;;;11.77;7.55;;;;;;;;;;4430939;32;316454;-94
2023/06/21 10:16:12;;;;;;;8.90;8.07;;;;;;;;;;4412001;32;317693;-94
2023/06/21 10:18:42;;;;;;;11.50;8.13;;;;;;;;;;4419590;32;387785;-94
2023/06/21 10:21:13;;;;;;;8.90;7.03;;;;;;;;;;4431324;32;317463;-95
2023/06/21 10:23:50;;;;;;;9.13;6.97;;;;;;;;;;4411786;32;419719;-95
2023/06/21 10:26:25;;;;;;;8.20;6.95;;;;;;;;;;4427919;32;316322;-95
2023/06/21 10:29:01;;;;;;;7.85;7.15;;;;;;;;;;4439315;32;316436;-95
2023/06/21 10:31:32;;;;;;;10.75;8.07;;;;;;;;;;4407381;32;316616;-94
2023/06/21 10:34:02;;;;;;;12.18;7.62;;;;;;;;;;4424554;32;317549;-94
2023/06/21 10:36:32;;;;;;;8.63;7.22;;;;;;;;;;4415142;32;317412;-94
2023/06/21 10:39:11;;;;;;;9.15;8.32;;;;;;;;;;4439477;32;316382;-94
2023/06/21 10:41:43;;;;;;;15.75;7.55;;;;;;;;;;4415686;32;316437;-94
2023/06/21 10:44:11;;;;;;;10.27;7.50;;;;;;;;;;4431500;32;349961;-95
2023/06/21 10:46:41;;;;;;;8.43;7.22;;;;;;;;;;4420156;32;317449;-94
2023/06/21 10:49:09;;;;;;;8.38;7.45;;;;;;;;;;4407604;32;316353;-94
2023/06/21 10:51:42;;;;;;;9.63;7.90;;;;;;;;;;4435957;32;336917;-96
2023/06/21 10:54:14;;;;;;;8.45;7.40;;;;;;;;;;4416486;32;317045;-94
2023/06/21 10:56:43;;;;;;;15.73;7.55;;;;;;;;;;4437771;32;316547;-95
2023/06/21 10:59:14;;;;;;;9.32;7.70;;;;;;;;;;4426498;32;318248;-91
2023/06/21 11:01:53;;;;;;;11.15;8.00;;;;;;;;;;4439119;32;316805;-93
2023/06/21 11:04:39;;;;;;;9.68;8.30;;;;;;;;;;4424938;32;316556;-93
2023/06/21 11:07:10;;;;;;;8.02;7.20;;;;;;;;;;4416176;32;316574;-96
2023/06/21 11:09:47;;;;;;;11.68;8.05;;;;;;;;;;4426885;32;315198;-96
2023/06/21 11:12:17;;;;;;;10.37;7.47;;;;;;;;;;4404349;32;315529;-94
2023/06/21 11:14:49;;;;;;;8.77;7.87;;;;;;;;;;4424395;32;317881;-94
2023/06/21 11:17:18;;;;;;;9.13;7.37;;;;;;;;;;4407518;32;316440;-93
2023/06/21 11:19:45;;;;;;;8.25;7.05;;;;;;;;;;4418484;32;316472;-94
2023/06/21 11:22:17;;;;;;;8.13;7.33;;;;;;;;;;4416333;32;315567;-93
2023/06/21 11:24:57;;;;;;;14.00;8.27;;;;;;;;;;4431706;32;316372;-94
2023/06/21 11:27:27;;;;;;;10.10;8.10;;;;;;;;;;4407554;32;317371;-94
2023/06/21 11:29:59;;;;;;;8.68;7.37;;;;;;;;;;4419921;32;317454;-95
2023/06/21 11:32:31;;;;;;;11.93;8.40;;;;;;;;;;4420370;32;316853;-95
2023/06/21 11:35:09;;;;;;;10.15;7.65;;;;;;;;;;4420989;32;316452;-94
2023/06/21 11:37:47;;;;;;;12.85;8.18;;;;;;;;;;4412061;32;389384;-93
2023/06/21 11:40:26;;;;;;;8.27;7.20;;;;;;;;;;4414023;32;316391;-95
2023/06/21 11:42:55;;;;;;;12.95;8.15;;;;;;;;;;4422635;32;316373;-94
2023/06/21 11:45:25;;;;;;;12.73;8.30;;;;;;;;;;4406661;32;317792;-94
2023/06/21 11:48:00;;;;;;;8.48;7.28;;;;;;;;;;4430938;32;356266;-94
2023/06/21 11:50:34;;;;;;;9.68;8.75;;;;;;;;;;4399396;32;316816;-93
2023/06/21 11:53:25;;;;;;;7.85;7.05;;;;;;;;;;4422451;32;316571;-95
2023/06/21 11:55:57;;;;;;;15.75;7.28;;;;;;;;;;4409526;32;388384;-94
2023/06/21 11:58:24;;;;;;;10.55;8.90;;;;;;;;;;4412625;32;317420;-92
2023/06/21 12:00:53;;;;;;;10.40;7.25;;;;;;;;;;4422807;32;317635;-93
2023/06/21 12:03:22;;;;;;;9.40;7.37;;;;;;;;;;4408442;32;317470;-94
2023/06/21 12:05:53;;;;;;;10.73;7.53;;;;;;;;;;4435765;32;316563;-95
2023/06/21 12:08:21;;;;;;;9.52;8.02;;;;;;;;;;4398666;32;317451;-95
2023/06/21 12:10:51;;;;;;;18.05;7.82;;;;;;;;;;4426450;32;316306;-94
2023/06/21 12:13:27;;;;;;;9.65;7.12;;;;;;;;;;4428343;32;317374;-94
2023/06/21 12:15:56;;;;;;;8.32;7.20;;;;;;;;;;4435996;32;342893;-94
2023/06/21 12:18:24;;;;;;;16.02;7.82;;;;;;;;;;4425811;32;316214;-95
2023/06/21 12:20:56;;;;;;;7.62;6.82;;;;;;;;;;4424613;32;317306;-93
2023/06/21 12:23:23;;;;;;;8.65;7.75;;;;;;;;;;4427906;32;316409;-95
2023/06/21 12:25:52;;;;;;;8.63;7.22;;;;;;;;;;4421990;32;316532;-96
2023/06/21 12:28:27;;;;;;;8.23;7.43;;;;;;;;;;4426110;32;349033;-95
2023/06/21 12:30:58;;;;;;;10.48;7.65;;;;;;;;;;4428574;32;316283;-95
2023/06/21 12:33:30;;;;;;;8.20;7.05;;;;;;;;;;4406029;32;317427;-95
2023/06/21 12:36:14;;;;;;;8.40;7.35;;;;;;;;;;4436766;32;316410;-96
2023/06/21 12:38:44;;;;;;;9.38;7.43;;;;;;;;;;4425204;32;414260;-96
2023/06/21 12:41:16;;;;;;;18.80;7.53;;;;;;;;;;4410708;32;316693;-94
2023/06/21 12:43:47;;;;;;;10.25;7.72;;;;;;;;;;4437694;32;317526;-93
2023/06/21 12:46:15;;;;;;;8.73;7.83;;;;;;;;;;4402272;32;317515;-94
2023/06/21 12:48:49;;;;;;;9.30;7.93;;;;;;;;;;4421264;32;316608;-93
2023/06/21 12:51:23;;;;;;;10.23;6.25;;;;;;;;;;4413378;32;316797;-93
2023/06/21 12:53:56;;;;;;;11.60;7.50;;;;;;;;;;4435708;32;317714;-94
2023/06/21 12:56:28;;;;;;;8.55;7.65;;;;;;;;;;4414832;32;317598;-95
2023/06/21 12:59:00;;;;;;;11.18;7.90;;;;;;;;;;4423290;32;316312;-95
2023/06/21 13:01:29;;;;;;;12.23;9.05;;;;;;;;;;4414831;32;317439;-94
2023/06/21 13:03:57;;;;;;;8.77;7.28;;;;;;;;;;4447075;32;316174;-93
2023/06/21 13:06:25;;;;;;;8.63;7.62;;;;;;;;;;4424154;32;315182;-94
2023/06/21 13:08:53;;;;;;;8.10;6.80;;;;;;;;;;4414006;32;316222;-94
2023/06/21 13:11:20;;;;;;;9.53;8.27;;;;;;;;;;4401628;32;352442;-94
2023/06/21 13:14:01;;;;;;;9.35;7.60;;;;;;;;;;4415873;32;316304;-95
2023/06/21 13:16:30;;;;;;;7.87;6.95;;;;;;;;;;4402670;32;316283;-95
2023/06/21 13:18:56;;;;;;;9.07;7.12;;;;;;;;;;4437197;32;316379;-95
2023/06/21 13:21:25;;;;;;;10.00;7.07;;;;;;;;;;4413263;32;316542;-95
2023/06/21 13:23:59;;;;;;;9.52;7.28;;;;;;;;;;4427535;32;317584;-95
2023/06/21 13:26:26;;;;;;;9.30;6.72;;;;;;;;;;4412804;32;337810;-93
2023/06/21 13:28:57;;;;;;;7.18;6.47;;;;;;;;;;4426314;32;329475;-95
2023/06/21 13:31:27;;;;;;;12.88;7.57;;;;;;;;;;4404807;32;316680;-95
2023/06/21 13:33:57;;;;;;;8.63;6.97;;;;;;;;;;4420325;32;317466;-93
2023/06/21 13:36:25;;;;;;;7.32;6.55;;;;;;;;;;4407788;32;316394;-95
2023/06/21 13:38:56;;;;;;;7.37;6.68;;;;;;;;;;4422290;32;316606;-95
2023/06/21 13:41:25;;;;;;;7.33;6.23;;;;;;;;;;4424734;32;316557;-95
2023/06/21 13:43:55;;;;;;;7.68;6.28;;;;;;;;;;4432118;32;316437;-95
2023/06/21 13:46:21;;;;;;;11.45;6.87;;;;;;;;;;4415459;32;316504;-93
2023/06/21 13:48:49;;;;;;;9.52;7.32;;;;;;;;;;4422927;32;317829;-93
2023/06/21 13:51:19;;;;;;;7.20;6.50;;;;;;;;;;4412788;32;316167;-93
2023/06/21 13:53:47;;;;;;;8.00;6.62;;;;;;;;;;4435644;32;316489;-94
2023/06/21 13:56:15;;;;;;;8.00;6.43;;;;;;;;;;4418716;32;315321;-94
2023/06/21 13:58:45;;;;;;;11.75;6.55;;;;;;;;;;4434453;32;316341;-95
2023/06/21 14:01:17;;;;;;;11.20;6.65;;;;;;;;;;4427521;32;317541;-94
2023/06/21 14:03:44;;;;;;;11.15;6.93;;;;;;;;;;4411381;32;317831;-93
2023/06/21 14:06:11;;;;;;;7.35;6.57;;;;;;;;;;4416796;32;329531;-94
2023/06/21 14:08:41;;;;;;;9.32;6.78;;;;;;;;;;4433267;32;316537;-95
2023/06/21 14:11:10;;;;;;;11.12;6.93;;;;;;;;;;4415029;32;316747;-95
2023/06/21 14:13:42;;;;;;;7.37;6.53;;;;;;;;;;4430380;32;356602;-95
2023/06/21 14:16:10;;;;;;;10.77;7.05;;;;;;;;;;4413459;32;316693;-94
2023/06/21 14:18:37;;;;;;;7.45;6.55;;;;;;;;;;4424165;32;317338;-95
2023/06/21 14:21:06;;;;;;;7.22;6.35;;;;;;;;;;4438005;32;316277;-94
2023/06/21 14:23:34;;;;;;;8.52;7.50;;;;;;;;;;4423775;32;416359;-95
2023/06/21 14:26:04;;;;;;;7.80;6.50;;;;;;;;;;4415715;32;316353;-94
2023/06/21 14:28:33;;;;;;;7.75;6.28;;;;;;;;;;4422840;32;417178;-94
2023/06/21 14:31:02;;;;;;;7.28;6.50;;;;;;;;;;4423373;32;315927;-93
2023/06/21 14:33:29;;;;;;;11.10;7.18;;;;;;;;;;4420671;32;316503;-95
2023/06/21 14:35:56;;;;;;;7.37;6.65;;;;;;;;;;4437165;32;317242;-95
2023/06/21 14:38:24;;;;;;;6.93;6.22;;;;;;;;;;4414752;32;331159;-93
2023/06/21 14:40:51;;;;;;;7.80;6.57;;;;;;;;;;4425892;32;316357;-95
2023/06/21 14:43:20;;;;;;;10.32;7.00;;;;;;;;;;4428295;32;316331;-94
2023/06/21 14:45:48;;;;;;;7.20;6.50;;;;;;;;;;4416824;32;317435;-94
2023/06/21 14:48:17;;;;;;;9.48;6.20;;;;;;;;;;4427927;32;316432;-95